createdAt,value
2022-08-09T00:00:44.502Z,100.00
2022-08-09T00:04:00.794Z,100.00
2022-08-09T00:06:16.058Z,100.00
2022-08-09T00:08:49.204Z,100.00
2022-08-09T00:12:03.950Z,100.00
2022-08-09T00:14:12.553Z,100.00
2022-08-09T00:16:55.785Z,100.00
2022-08-09T00:19:22.469Z,100.00
2022-08-09T00:21:57.043Z,100.00
2022-08-09T00:24:24.474Z,100.00
2022-08-09T00:26:57.792Z,100.00
2022-08-09T00:29:39.117Z,100.00
2022-08-09T00:32:26.547Z,100.00
2022-08-09T00:35:09.784Z,100.00
2022-08-09T00:37:43.805Z,100.00
2022-08-09T00:40:19.685Z,100.00
2022-08-09T00:44:13.488Z,100.00
2022-08-09T00:45:50.740Z,100.00
2022-08-09T00:48:26.776Z,100.00
2022-08-09T00:50:59.801Z,100.00
2022-08-09T00:53:26.400Z,100.00
2022-08-09T00:56:05.185Z,100.00
2022-08-09T00:58:36.300Z,100.00
2022-08-09T01:01:20.820Z,100.00
2022-08-09T01:03:54.956Z,100.00
2022-08-09T01:06:54.504Z,100.00
2022-08-09T01:09:36.627Z,100.00
2022-08-09T01:12:09.777Z,100.00
2022-08-09T01:14:52.651Z,100.00
2022-08-09T01:17:30.482Z,100.00
2022-08-09T01:20:03.198Z,100.00
2022-08-09T01:22:45.758Z,100.00
2022-08-09T01:25:21.981Z,100.00
2022-08-09T01:27:58.015Z,100.00
2022-08-09T01:30:28.682Z,100.00
2022-08-09T01:33:20.773Z,100.00
2022-08-09T01:35:53.379Z,100.00
2022-08-09T01:38:29.784Z,100.00
2022-08-09T01:41:08.073Z,100.00
2022-08-09T01:43:52.011Z,100.00
2022-08-09T01:46:26.461Z,100.00
2022-08-09T01:49:09.545Z,100.00
2022-08-09T01:51:39.140Z,100.00
2022-08-09T01:54:17.192Z,100.00
2022-08-09T01:56:47.176Z,100.00
2022-08-09T01:59:26.789Z,100.00
2022-08-09T02:02:01.201Z,100.00
2022-08-09T02:04:35.805Z,100.00
2022-08-09T02:07:17.814Z,100.00
2022-08-09T02:10:05.763Z,100.00
2022-08-09T02:12:33.403Z,100.00
2022-08-09T02:15:07.811Z,100.00
2022-08-09T02:18:00.594Z,100.00
2022-08-09T02:20:33.872Z,100.00
2022-08-09T02:23:03.737Z,100.00
2022-08-09T02:25:42.174Z,100.00
2022-08-09T02:28:24.369Z,100.00
2022-08-09T02:31:01.766Z,100.00
2022-08-09T02:33:37.915Z,100.00
2022-08-09T02:36:36.795Z,100.00
2022-08-09T02:39:20.037Z,100.00
2022-08-09T02:42:07.889Z,100.00
2022-08-09T02:44:50.777Z,100.00
2022-08-09T02:47:24.868Z,100.00
2022-08-09T02:50:02.517Z,100.00
2022-08-09T02:53:01.770Z,100.00
2022-08-09T02:55:39.447Z,100.00
2022-08-09T02:58:35.312Z,100.00
2022-08-09T03:01:06.357Z,100.00
2022-08-09T03:04:17.258Z,100.00
2022-08-09T03:06:36.761Z,100.00
2022-08-09T03:09:10.767Z,100.00
2022-08-09T03:12:10.443Z,100.00
2022-08-09T03:14:32.784Z,100.00
2022-08-09T03:17:01.737Z,100.00
2022-08-09T03:19:52.591Z,100.00
2022-08-09T03:22:31.919Z,100.00
2022-08-09T03:25:26.106Z,100.00
2022-08-09T03:27:59.776Z,100.00
2022-08-09T03:30:32.996Z,100.00
2022-08-09T03:33:17.534Z,100.00
2022-08-09T03:36:12.848Z,100.00
2022-08-09T03:38:47.805Z,100.00
2022-08-09T03:41:42.999Z,100.00
2022-08-09T03:44:22.750Z,100.00
2022-08-09T03:46:58.493Z,100.00
2022-08-09T03:49:35.817Z,100.00
2022-08-09T03:52:03.768Z,100.00
2022-08-09T03:54:40.177Z,100.00
2022-08-09T03:57:20.913Z,100.00
2022-08-09T04:00:00.730Z,100.00
2022-08-09T04:02:30.809Z,100.00
2022-08-09T04:05:26.507Z,100.00
2022-08-09T04:07:57.555Z,100.00
2022-08-09T04:10:31.742Z,100.00
2022-08-09T04:13:05.777Z,100.00
2022-08-09T04:16:18.641Z,100.00
2022-08-09T04:18:25.359Z,100.00
2022-08-09T04:20:59.114Z,100.00
2022-08-09T04:23:26.360Z,100.00
2022-08-09T04:26:00.819Z,100.00
2022-08-09T04:28:33.526Z,100.00
2022-08-09T04:31:10.286Z,100.00
2022-08-09T04:33:52.056Z,100.00
2022-08-09T04:36:20.126Z,100.00
2022-08-09T04:38:52.757Z,100.00
2022-08-09T04:41:33.304Z,100.00
2022-08-09T04:44:18.744Z,100.00
2022-08-09T04:46:58.384Z,100.00
2022-08-09T04:49:52.836Z,100.00
2022-08-09T04:52:27.138Z,100.00
2022-08-09T04:55:02.394Z,100.00
2022-08-09T04:57:58.502Z,100.00
2022-08-09T05:00:24.757Z,100.00
2022-08-09T05:03:30.665Z,100.00
2022-08-09T05:06:04.480Z,100.00
2022-08-09T05:08:34.831Z,100.00
2022-08-09T05:11:08.815Z,100.00
2022-08-09T05:13:38.723Z,100.00
2022-08-09T05:16:14.933Z,100.00
2022-08-09T05:18:57.766Z,100.00
2022-08-09T05:21:36.412Z,100.00
2022-08-09T05:24:13.475Z,100.00
2022-08-09T05:26:47.904Z,100.00
2022-08-09T05:29:22.027Z,100.00
2022-08-09T05:31:58.355Z,100.00
2022-08-09T05:34:31.485Z,100.00
2022-08-09T05:37:06.771Z,100.00
2022-08-09T05:39:36.141Z,100.00
2022-08-09T05:42:28.679Z,100.00
2022-08-09T05:45:01.960Z,100.00
2022-08-09T05:47:34.734Z,100.00
2022-08-09T05:50:30.835Z,100.00
2022-08-09T05:53:05.735Z,100.00
2022-08-09T05:55:38.359Z,100.00
2022-08-09T05:58:11.812Z,100.00
2022-08-09T06:00:45.376Z,100.00
2022-08-09T06:03:20.585Z,100.00
2022-08-09T06:05:50.278Z,100.00
2022-08-09T06:08:31.707Z,100.00
2022-08-09T06:10:59.112Z,100.00
2022-08-09T06:13:34.200Z,100.00
2022-08-09T06:16:07.706Z,100.00
2022-08-09T06:18:41.901Z,100.00
2022-08-09T06:21:09.215Z,100.00
2022-08-09T06:23:58.299Z,100.00
2022-08-09T06:26:34.716Z,100.00
2022-08-09T06:29:07.744Z,100.00
2022-08-09T06:32:36.172Z,100.00
2022-08-09T06:34:34.381Z,100.00
2022-08-09T06:37:10.162Z,100.00
2022-08-09T06:39:49.338Z,100.00
2022-08-09T06:42:45.141Z,100.00
2022-08-09T06:46:05.040Z,100.00
2022-08-09T06:48:16.584Z,100.00
2022-08-09T06:50:59.909Z,100.00
2022-08-09T06:53:26.681Z,100.00
2022-08-09T06:55:59.757Z,100.00
2022-08-09T07:00:52.289Z,100.00
2022-08-09T07:01:23.991Z,100.00
2022-08-09T07:03:56.707Z,100.00
2022-08-09T07:06:33.722Z,100.00
2022-08-09T07:09:01.389Z,100.00
2022-08-09T07:11:45.475Z,100.00
2022-08-09T07:14:26.737Z,100.00
2022-08-09T07:16:57.962Z,100.00
2022-08-09T07:19:31.882Z,100.00
2022-08-09T07:21:59.801Z,100.00
2022-08-09T07:24:40.113Z,100.00
2022-08-09T07:27:27.379Z,100.00
2022-08-09T07:30:08.695Z,100.00
2022-08-09T07:32:36.412Z,100.00
2022-08-09T07:35:14.696Z,100.00
2022-08-09T07:37:51.908Z,100.00
2022-08-09T07:40:26.831Z,100.00
2022-08-09T07:43:01.709Z,100.00
2022-08-09T07:45:37.974Z,100.00
2022-08-09T07:48:25.868Z,100.00
2022-08-09T07:51:09.507Z,100.00
2022-08-09T07:54:04.916Z,100.00
2022-08-09T07:56:34.429Z,100.00
2022-08-09T07:59:14.012Z,100.00
2022-08-09T08:01:42.759Z,100.00
2022-08-09T08:04:31.618Z,100.00
2022-08-09T08:07:09.573Z,100.00
2022-08-09T08:10:04.589Z,100.00
2022-08-09T08:12:37.100Z,100.00
2022-08-09T08:15:17.734Z,100.00
2022-08-09T08:17:53.612Z,100.00
2022-08-09T08:20:32.433Z,99.33
2022-08-09T08:23:17.061Z,98.09
2022-08-09T08:25:50.345Z,100.00
2022-08-09T08:28:32.757Z,100.00
2022-08-09T08:31:04.669Z,91.17
2022-08-09T08:33:52.468Z,96.75
2022-08-09T08:36:29.604Z,89.75
2022-08-09T08:39:22.095Z,73.81
2022-08-09T08:41:58.725Z,66.21
2022-08-09T08:44:41.864Z,65.73
2022-08-09T08:47:12.925Z,75.17
2022-08-09T08:49:49.353Z,78.27
2022-08-09T08:52:52.674Z,71.73
2022-08-09T08:55:09.752Z,68.16
2022-08-09T08:57:37.617Z,70.00
2022-08-09T09:00:20.318Z,64.78
2022-08-09T09:02:49.940Z,71.11
2022-08-09T09:05:57.852Z,63.10
2022-08-09T09:08:30.157Z,57.28
2022-08-09T09:11:05.704Z,60.57
2022-08-09T09:13:56.469Z,64.25
2022-08-09T09:16:37.690Z,60.49
2022-08-09T09:22:02.693Z,57.80
2022-08-09T09:24:39.578Z,62.80
2022-08-09T09:27:08.544Z,65.60
2022-08-09T09:30:13.990Z,58.35
2022-08-09T09:32:37.094Z,68.44
2022-08-09T09:35:15.787Z,59.50
2022-08-09T09:37:53.013Z,55.53
2022-08-09T09:40:19.550Z,53.56
2022-08-09T09:43:09.723Z,59.73
2022-08-09T09:46:38.842Z,58.92
2022-08-09T09:49:16.861Z,55.65
2022-08-09T09:51:43.474Z,59.11
2022-08-09T09:54:21.107Z,57.72
2022-08-09T09:58:03.779Z,52.57
2022-08-09T09:59:52.056Z,50.53
2022-08-09T10:02:25.954Z,52.00
2022-08-09T10:05:09.930Z,53.46
2022-08-09T10:08:10.785Z,52.13
2022-08-09T10:10:31.317Z,53.98
2022-08-09T10:13:04.696Z,55.00
2022-08-09T10:16:08.743Z,53.78
2022-08-09T10:18:25.305Z,49.89
2022-08-09T10:20:59.687Z,48.52
2022-08-09T10:23:28.099Z,48.00
2022-08-09T10:26:06.266Z,48.80
2022-08-09T10:28:36.702Z,47.36
2022-08-09T10:34:09.173Z,46.75
2022-08-09T10:36:45.263Z,46.42
2022-08-09T10:39:15.457Z,48.20
2022-08-09T10:41:49.705Z,70.27
2022-08-09T10:44:30.415Z,60.50
2022-08-09T10:48:16.781Z,54.31
2022-08-09T10:50:03.259Z,54.93
2022-08-09T10:52:55.739Z,54.27
2022-08-09T10:55:28.091Z,49.69
2022-08-09T10:58:01.751Z,50.15
2022-08-09T11:00:29.259Z,46.88
2022-08-09T11:03:19.034Z,46.72
2022-08-09T11:06:08.285Z,48.76
2022-08-09T11:08:51.287Z,51.28
2022-08-09T11:11:20.291Z,52.10
2022-08-09T11:13:54.745Z,47.55
2022-08-09T11:16:40.773Z,47.57
2022-08-09T11:19:14.669Z,48.89
2022-08-09T11:21:57.193Z,48.63
2022-08-09T11:24:57.771Z,49.33
2022-08-09T11:28:02.297Z,50.28
2022-08-09T11:30:34.315Z,48.70
2022-08-09T11:33:24.667Z,47.92
2022-08-09T11:35:58.014Z,47.20
2022-08-09T11:38:34.007Z,46.19
2022-08-09T11:41:05.443Z,46.44
2022-08-09T11:43:47.658Z,46.85
2022-08-09T11:46:33.644Z,46.82
2022-08-09T11:49:07.856Z,47.01
2022-08-09T11:53:02.380Z,46.10
2022-08-09T11:55:15.697Z,47.74
2022-08-09T11:58:02.258Z,48.30
2022-08-09T12:00:39.669Z,43.66
2022-08-09T12:03:50.371Z,45.92
2022-08-09T12:06:15.683Z,43.65
2022-08-09T12:08:59.693Z,43.61
2022-08-09T12:11:44.487Z,43.38
2022-08-09T12:14:58.880Z,45.21
2022-08-09T12:17:34.391Z,44.83
2022-08-09T12:20:27.808Z,43.07
2022-08-09T12:23:02.694Z,45.37
2022-08-09T12:25:32.036Z,44.61
2022-08-09T12:29:15.214Z,44.01
2022-08-09T12:31:30.826Z,44.98
2022-08-09T12:34:21.093Z,44.59
2022-08-09T12:36:58.985Z,45.00
2022-08-09T12:39:43.578Z,43.10
2022-08-09T12:42:17.733Z,47.01
2022-08-09T12:44:54.458Z,44.18
2022-08-09T12:47:28.674Z,44.32
2022-08-09T12:50:25.738Z,43.20
2022-08-09T12:53:08.953Z,44.46
2022-08-09T12:56:12.382Z,43.51
2022-08-09T12:58:32.600Z,42.25
2022-08-09T13:01:07.674Z,42.35
2022-08-09T13:03:57.255Z,42.25
2022-08-09T13:06:35.891Z,40.65
2022-08-09T13:09:07.513Z,40.74
2022-08-09T13:11:45.834Z,42.57
2022-08-09T13:14:42.089Z,42.57
2022-08-09T13:17:13.657Z,43.42
2022-08-09T13:20:06.726Z,43.34
2022-08-09T13:23:06.043Z,45.08
2022-08-09T13:25:31.854Z,44.21
2022-08-09T13:28:08.325Z,42.84
2022-08-09T13:31:10.865Z,45.25
2022-08-09T13:33:35.990Z,43.67
2022-08-09T13:36:39.604Z,42.84
2022-08-09T13:41:19.220Z,41.50
2022-08-09T13:42:12.472Z,40.39
2022-08-09T13:44:48.713Z,38.30
2022-08-09T13:47:49.441Z,39.74
2022-08-09T13:50:30.123Z,36.59
2022-08-09T13:53:04.669Z,37.67
2022-08-09T13:55:33.990Z,36.15
2022-08-09T13:58:11.660Z,39.49
2022-08-09T14:00:49.818Z,38.79
2022-08-09T14:04:01.105Z,38.00
2022-08-09T14:06:11.876Z,37.26
2022-08-09T14:08:52.655Z,36.76
2022-08-09T14:11:19.342Z,36.46
2022-08-09T14:14:22.795Z,36.35
2022-08-09T14:16:40.432Z,36.73
2022-08-09T14:19:13.703Z,36.86
2022-08-09T14:21:40.357Z,37.61
2022-08-09T14:24:18.564Z,36.67
2022-08-09T14:26:51.261Z,39.09
2022-08-09T14:30:34.828Z,42.03
2022-08-09T14:32:19.887Z,43.01
2022-08-09T14:35:03.653Z,41.97
2022-08-09T14:38:01.428Z,40.73
2022-08-09T14:40:39.021Z,41.51
2022-08-09T14:43:18.777Z,42.21
2022-08-09T14:46:55.972Z,42.60
2022-08-09T14:48:45.370Z,42.31
2022-08-09T14:51:18.689Z,43.00
2022-08-09T14:53:52.701Z,44.77
2022-08-09T14:56:19.365Z,44.05
2022-08-09T14:58:56.212Z,43.61
2022-08-09T15:01:24.736Z,45.71
2022-08-09T15:03:58.662Z,47.39
2022-08-09T15:06:25.646Z,44.45
2022-08-09T15:09:03.644Z,45.17
2022-08-09T15:11:37.656Z,46.30
2022-08-09T15:14:13.411Z,45.42
2022-08-09T15:16:46.698Z,44.58
2022-08-09T15:19:26.070Z,46.90
2022-08-09T15:21:58.780Z,49.13
2022-08-09T15:24:35.665Z,47.15
2022-08-09T15:27:02.996Z,45.95
2022-08-09T15:30:55.747Z,46.53
2022-08-09T15:32:32.674Z,47.55
2022-08-09T15:35:40.082Z,46.96
2022-08-09T15:37:57.121Z,46.50
2022-08-09T15:40:44.662Z,51.28
2022-08-09T15:43:18.688Z,45.67
2022-08-09T15:46:28.703Z,49.42
2022-08-09T15:49:20.495Z,45.29
2022-08-09T15:52:05.032Z,43.62
2022-08-09T15:54:42.400Z,43.99
2022-08-09T15:57:13.341Z,43.63
2022-08-09T15:59:51.441Z,43.81
2022-08-09T16:02:19.077Z,42.68
2022-08-09T16:05:04.150Z,43.07
2022-08-09T16:07:39.256Z,43.50
2022-08-09T16:10:55.017Z,42.87
2022-08-09T16:13:20.948Z,42.01
2022-08-09T16:16:10.834Z,40.91
2022-08-09T16:18:50.666Z,44.66
2022-08-09T16:21:25.438Z,42.88
2022-08-09T16:24:02.705Z,44.94
2022-08-09T16:26:36.680Z,44.89
2022-08-09T16:29:10.337Z,45.04
2022-08-09T16:32:19.293Z,45.76
2022-08-09T16:34:55.544Z,45.86
2022-08-09T16:37:54.683Z,46.54
2022-08-09T16:40:39.847Z,45.77
2022-08-09T16:43:14.408Z,45.64
2022-08-09T16:45:48.155Z,47.56
2022-08-09T16:48:43.400Z,47.16
2022-08-09T16:51:14.661Z,47.15
2022-08-09T16:54:16.437Z,48.18
2022-08-09T16:56:49.510Z,44.38
2022-08-09T16:59:23.988Z,43.14
2022-08-09T17:01:52.999Z,43.09
2022-08-09T17:04:28.301Z,43.10
2022-08-09T17:08:40.960Z,41.39
2022-08-09T17:09:48.675Z,41.54
2022-08-09T17:12:17.556Z,42.00
2022-08-09T17:14:57.653Z,42.00
2022-08-09T17:17:26.769Z,40.96
2022-08-09T17:20:29.093Z,41.04
2022-08-09T17:22:50.111Z,40.54
2022-08-09T17:25:25.651Z,41.95
2022-08-09T17:27:57.939Z,41.76
2022-08-09T17:30:34.640Z,42.24
2022-08-09T17:33:22.636Z,43.61
2022-08-09T17:35:56.657Z,43.04
2022-08-09T17:38:34.076Z,43.54
2022-08-09T17:41:06.203Z,42.90
2022-08-09T17:43:41.044Z,44.87
2022-08-09T17:46:21.704Z,44.10
2022-08-09T17:49:01.200Z,46.18
2022-08-09T17:51:34.652Z,45.85
2022-08-09T17:54:08.658Z,45.24
2022-08-09T17:56:36.138Z,43.47
2022-08-09T17:59:16.734Z,44.69
2022-08-09T18:02:11.163Z,46.09
2022-08-09T18:04:37.465Z,43.76
2022-08-09T18:07:23.379Z,47.77
2022-08-09T18:10:04.448Z,49.62
2022-08-09T18:13:40.101Z,48.85
2022-08-09T18:15:50.266Z,48.18
2022-08-09T18:18:25.895Z,50.29
2022-08-09T18:21:19.194Z,51.09
2022-08-09T18:24:09.826Z,50.53
2022-08-09T18:26:46.870Z,52.96
2022-08-09T18:30:38.341Z,51.23
2022-08-09T18:32:18.864Z,52.95
2022-08-09T18:34:45.936Z,51.89
2022-08-09T18:37:49.128Z,53.40
2022-08-09T18:40:08.541Z,51.63
2022-08-09T18:42:43.051Z,50.90
2022-08-09T18:45:21.487Z,52.52
2022-08-09T18:48:17.895Z,52.39
2022-08-09T18:50:44.721Z,51.69
2022-08-09T18:53:17.656Z,51.52
2022-08-09T18:55:56.407Z,52.48
2022-08-09T18:58:33.772Z,52.13
2022-08-09T19:01:01.821Z,51.99
2022-08-09T19:03:29.164Z,52.46
2022-08-09T19:06:22.686Z,52.60
2022-08-09T19:09:03.218Z,53.11
2022-08-09T19:11:37.940Z,53.50
2022-08-09T19:14:12.733Z,53.41
2022-08-09T19:16:50.350Z,53.74
2022-08-09T19:19:25.671Z,54.76
2022-08-09T19:22:06.686Z,54.49
2022-08-09T19:25:09.946Z,54.81
2022-08-09T19:27:34.639Z,56.19
2022-08-09T19:30:24.823Z,56.73
2022-08-09T19:32:55.394Z,57.69
2022-08-09T19:35:57.668Z,57.69
2022-08-09T19:38:18.416Z,58.60
2022-08-09T19:40:51.727Z,58.70
2022-08-09T19:44:01.010Z,59.02
2022-08-09T19:46:35.505Z,60.20
2022-08-09T19:50:08.671Z,59.87
2022-08-09T19:52:07.667Z,60.34
2022-08-09T19:54:40.707Z,60.85
2022-08-09T19:57:14.666Z,60.76
2022-08-09T19:59:59.161Z,60.67
2022-08-09T20:04:08.356Z,61.75
2022-08-09T20:05:23.624Z,60.73
2022-08-09T20:08:05.138Z,62.17
2022-08-09T20:10:34.828Z,62.60
2022-08-09T20:13:11.654Z,63.28
2022-08-09T20:16:33.208Z,63.86
2022-08-09T20:18:37.667Z,64.36
2022-08-09T20:21:04.425Z,63.08
2022-08-09T20:23:41.718Z,62.61
2022-08-09T20:26:10.144Z,62.07
2022-08-09T20:28:49.895Z,61.68
2022-08-09T20:31:17.244Z,62.43
2022-08-09T20:33:52.360Z,62.47
2022-08-09T20:36:25.036Z,62.64
2022-08-09T20:39:27.975Z,62.25
2022-08-09T20:41:53.624Z,63.19
2022-08-09T20:44:34.458Z,62.81
2022-08-09T20:47:45.365Z,61.55
2022-08-09T20:50:04.265Z,61.59
2022-08-09T20:52:37.828Z,62.16
2022-08-09T20:55:08.772Z,61.31
2022-08-09T20:58:05.436Z,60.96
2022-08-09T21:00:35.692Z,60.77
2022-08-09T21:03:08.908Z,60.91
2022-08-09T21:05:56.105Z,61.12
2022-08-09T21:08:36.725Z,60.99
2022-08-09T21:13:59.626Z,59.95
2022-08-09T21:16:33.635Z,60.99
2022-08-09T21:20:19.263Z,60.32
2022-08-09T21:21:57.261Z,60.27
2022-08-09T21:24:33.795Z,59.73
2022-08-09T21:27:10.160Z,60.84
2022-08-09T21:29:54.625Z,61.26
2022-08-09T21:32:33.396Z,61.24
2022-08-09T21:35:07.695Z,60.76
2022-08-09T21:37:58.750Z,61.06
2022-08-09T21:40:30.799Z,60.70
2022-08-09T21:43:09.608Z,60.48
2022-08-09T21:45:49.784Z,60.87
2022-08-09T21:48:24.029Z,60.08
2022-08-09T21:51:00.605Z,60.24
2022-08-09T21:53:40.736Z,60.90
2022-08-09T21:56:33.687Z,61.91
2022-08-09T21:59:07.615Z,64.54
2022-08-09T22:01:59.448Z,66.17
2022-08-09T22:04:55.392Z,69.63
2022-08-09T22:07:35.464Z,69.53
2022-08-09T22:10:08.724Z,70.09
2022-08-09T22:12:49.768Z,69.88
2022-08-09T22:15:16.947Z,71.24
2022-08-09T22:17:50.603Z,73.03
2022-08-09T22:20:21.979Z,73.78
2022-08-09T22:23:00.618Z,73.98
2022-08-09T22:26:07.824Z,73.76
2022-08-09T22:28:21.060Z,75.17
2022-08-09T22:31:05.621Z,76.10
2022-08-09T22:33:48.568Z,77.24
2022-08-09T22:36:22.621Z,78.33
2022-08-09T22:38:49.158Z,79.01
2022-08-09T22:41:22.648Z,79.47
2022-08-09T22:44:01.368Z,80.00
2022-08-09T22:48:13.619Z,80.07
2022-08-09T22:49:23.582Z,78.99
2022-08-09T22:51:57.047Z,79.27
2022-08-09T22:54:26.950Z,78.91
2022-08-09T22:57:00.769Z,80.05
2022-08-09T22:59:55.675Z,80.94
2022-08-09T23:02:21.586Z,81.42
2022-08-09T23:04:53.794Z,82.19
2022-08-09T23:08:21.884Z,82.47
2022-08-09T23:10:33.216Z,82.42
2022-08-09T23:13:06.597Z,82.88
2022-08-09T23:15:39.586Z,83.29
2022-08-09T23:18:12.598Z,84.49
2022-08-09T23:20:39.094Z,84.88
2022-08-09T23:23:12.613Z,85.51
2022-08-09T23:25:39.224Z,85.04
2022-08-09T23:28:16.022Z,86.22
2022-08-09T23:30:51.740Z,87.00
2022-08-09T23:33:26.617Z,87.88
2022-08-09T23:36:05.635Z,87.91
2022-08-09T23:38:49.054Z,89.22
2022-08-09T23:41:28.968Z,88.65
2022-08-09T23:44:05.797Z,88.55
2022-08-09T23:46:45.662Z,90.60
2022-08-09T23:49:13.184Z,91.38
2022-08-09T23:51:46.815Z,90.07
2022-08-09T23:54:13.392Z,89.74
2022-08-09T23:56:54.148Z,89.66
2022-08-09T23:59:28.608Z,90.17
